SBCT/CWB METAR and TAF weather

Enter ICAO airport designator
Station Type Date Time Source
SBCT METAR 2021/04/18 02:00 UTC NOAA

SBCT 180200Z 14005KT 9999 SCT007 BKN012 16/15 Q1018


Station Type Date Time Source
SBCT Decoded METAR 2021/04/18 02:00 UTC NOAA

Curitiba Aeroporto , Brazil (SBCT) 25-31S 049-10W 908M
Apr 17, 2021 - 10:00 PM EDT / 2021.04.18 0200 UTC
Wind: from the SE (140 degrees) at 6 MPH (5 KT):0
Visibility: greater than 7 mile(s):0
Sky conditions: mostly cloudy
Temperature: 60 F (16 C)
Dew Point: 59 F (15 C)
Relative Humidity: 93%
Pressure (altimeter): 30.06 in. Hg (1018 hPa)
ob: SBCT 180200Z 14005KT 9999 SCT007 BKN012 16/15 Q1018
cycle: 2

Station Type Date Time Source
SBCT TAF 2021/04/18 00:00 UTC NOAA

TAF SBCT 172100Z 1800/1824 14005KT 6000 DZ BKN007 TN15/1807Z TX20/1816Z PROB40 1803/1806 3000 RA OVC006
BECMG 1808/1810 14008KT 8000 DZ SCT006 SCT032
BECMG 1812/1814 9999 SHRA SCT018 FEW034TCU
BECMG 1815/1817 14010KT 9999 SHRA SCT012 SCT035
BECMG 1818/1820 9000 SCT005 SCT030
BECMG 1821/1823 14008KT 8000 BKN002 BKN030
RMK PAY

Example: see airport list